sensor_id;sensor_type;location;lat;lon;timestamp;P1;durP1;ratioP1;P2;durP2;ratioP2
22490;SDS011;11412;50.802;4.350;2023-06-22T00:02:15;2.65;;;1.88;;
22490;SDS011;11412;50.802;4.350;2023-06-22T00:04:41;2.70;;;2.00;;
22490;SDS011;11412;50.802;4.350;2023-06-22T00:07:06;1.88;;;1.77;;
22490;SDS011;11412;50.802;4.350;2023-06-22T00:09:33;2.22;;;1.80;;
22490;SDS011;11412;50.802;4.350;2023-06-22T00:11:59;2.33;;;1.85;;
22490;SDS011;11412;50.802;4.350;2023-06-22T00:14:26;3.08;;;1.75;;
22490;SDS011;11412;50.802;4.350;2023-06-22T00:16:52;2.72;;;1.65;;
22490;SDS011;11412;50.802;4.350;2023-06-22T00:19:22;2.42;;;1.30;;
22490;SDS011;11412;50.802;4.350;2023-06-22T00:21:48;1.60;;;1.50;;
22490;SDS011;11412;50.802;4.350;2023-06-22T00:24:21;1.67;;;1.58;;
22490;SDS011;11412;50.802;4.350;2023-06-22T00:26:47;2.20;;;1.30;;
22490;SDS011;11412;50.802;4.350;2023-06-22T00:29:14;2.30;;;1.58;;
22490;SDS011;11412;50.802;4.350;2023-06-22T00:31:40;3.85;;;1.75;;
22490;SDS011;11412;50.802;4.350;2023-06-22T00:34:05;2.10;;;1.60;;
22490;SDS011;11412;50.802;4.350;2023-06-22T00:36:33;1.70;;;1.60;;
22490;SDS011;11412;50.802;4.350;2023-06-22T00:38:59;2.20;;;1.80;;
22490;SDS011;11412;50.802;4.350;2023-06-22T00:41:25;4.45;;;2.10;;
22490;SDS011;11412;50.802;4.350;2023-06-22T00:43:53;4.15;;;2.00;;
22490;SDS011;11412;50.802;4.350;2023-06-22T00:46:19;2.33;;;1.90;;
22490;SDS011;11412;50.802;4.350;2023-06-22T00:48:47;2.00;;;1.90;;
22490;SDS011;11412;50.802;4.350;2023-06-22T00:51:13;2.20;;;2.00;;
22490;SDS011;11412;50.802;4.350;2023-06-22T00:53:39;2.97;;;1.90;;
22490;SDS011;11412;50.802;4.350;2023-06-22T00:56:06;4.50;;;2.30;;
22490;SDS011;11412;50.802;4.350;2023-06-22T00:58:34;2.00;;;1.90;;
22490;SDS011;11412;50.802;4.350;2023-06-22T01:01:01;3.42;;;2.08;;
22490;SDS011;11412;50.802;4.350;2023-06-22T01:03:27;3.03;;;1.98;;
22490;SDS011;11412;50.802;4.350;2023-06-22T01:05:54;4.43;;;1.88;;
22490;SDS011;11412;50.802;4.350;2023-06-22T01:09:26;2.10;;;1.90;;
22490;SDS011;11412;50.802;4.350;2023-06-22T01:11:41;2.40;;;2.13;;
22490;SDS011;11412;50.802;4.350;2023-06-22T01:14:21;2.78;;;2.00;;
22490;SDS011;11412;50.802;4.350;2023-06-22T01:16:53;3.28;;;2.17;;
22490;SDS011;11412;50.802;4.350;2023-06-22T01:21:59;2.33;;;2.20;;
22490;SDS011;11412;50.802;4.350;2023-06-22T01:24:27;2.47;;;2.28;;
22490;SDS011;11412;50.802;4.350;2023-06-22T01:27:08;4.00;;;2.50;;
22490;SDS011;11412;50.802;4.350;2023-06-22T01:29:55;2.40;;;2.03;;
22490;SDS011;11412;50.802;4.350;2023-06-22T01:32:34;2.72;;;2.53;;
22490;SDS011;11412;50.802;4.350;2023-06-22T01:35:03;4.03;;;2.25;;
22490;SDS011;11412;50.802;4.350;2023-06-22T01:37:30;2.70;;;2.50;;
22490;SDS011;11412;50.802;4.350;2023-06-22T01:39:58;5.32;;;2.20;;
22490;SDS011;11412;50.802;4.350;2023-06-22T01:42:24;2.90;;;2.13;;
22490;SDS011;11412;50.802;4.350;2023-06-22T01:44:53;2.80;;;2.33;;
22490;SDS011;11412;50.802;4.350;2023-06-22T01:47:21;2.40;;;2.20;;
22490;SDS011;11412;50.802;4.350;2023-06-22T01:49:47;3.78;;;2.30;;
22490;SDS011;11412;50.802;4.350;2023-06-22T01:52:13;2.50;;;1.98;;
22490;SDS011;11412;50.802;4.350;2023-06-22T01:54:40;2.88;;;2.67;;
22490;SDS011;11412;50.802;4.350;2023-06-22T01:57:06;3.63;;;2.50;;
22490;SDS011;11412;50.802;4.350;2023-06-22T02:00:18;2.30;;;2.20;;
22490;SDS011;11412;50.802;4.350;2023-06-22T02:02:21;3.08;;;2.88;;
22490;SDS011;11412;50.802;4.350;2023-06-22T02:04:59;2.63;;;2.38;;
22490;SDS011;11412;50.802;4.350;2023-06-22T02:07:29;5.22;;;2.65;;
22490;SDS011;11412;50.802;4.350;2023-06-22T02:09:59;3.53;;;2.60;;
22490;SDS011;11412;50.802;4.350;2023-06-22T02:12:26;3.03;;;2.83;;
22490;SDS011;11412;50.802;4.350;2023-06-22T02:14:54;3.10;;;2.90;;
22490;SDS011;11412;50.802;4.350;2023-06-22T02:17:20;3.45;;;3.15;;
22490;SDS011;11412;50.802;4.350;2023-06-22T02:19:46;4.00;;;2.72;;
22490;SDS011;11412;50.802;4.350;2023-06-22T02:22:11;3.33;;;2.88;;
22490;SDS011;11412;50.802;4.350;2023-06-22T02:24:40;3.22;;;2.92;;
22490;SDS011;11412;50.802;4.350;2023-06-22T02:27:06;3.17;;;2.80;;
22490;SDS011;11412;50.802;4.350;2023-06-22T02:29:32;3.58;;;2.70;;
22490;SDS011;11412;50.802;4.350;2023-06-22T02:31:58;3.05;;;2.65;;
22490;SDS011;11412;50.802;4.350;2023-06-22T02:34:24;3.90;;;2.80;;
22490;SDS011;11412;50.802;4.350;2023-06-22T02:36:50;2.88;;;2.60;;
22490;SDS011;11412;50.802;4.350;2023-06-22T02:39:18;3.15;;;2.35;;
22490;SDS011;11412;50.802;4.350;2023-06-22T02:41:50;2.45;;;2.25;;
22490;SDS011;11412;50.802;4.350;2023-06-22T02:44:18;3.17;;;2.53;;
22490;SDS011;11412;50.802;4.350;2023-06-22T02:46:44;2.75;;;2.50;;
22490;SDS011;11412;50.802;4.350;2023-06-22T02:49:11;3.38;;;2.45;;
22490;SDS011;11412;50.802;4.350;2023-06-22T02:51:38;2.60;;;2.40;;
22490;SDS011;11412;50.802;4.350;2023-06-22T02:54:05;3.33;;;2.30;;
22490;SDS011;11412;50.802;4.350;2023-06-22T02:56:31;4.00;;;2.78;;
22490;SDS011;11412;50.802;4.350;2023-06-22T02:58:56;4.03;;;2.70;;
22490;SDS011;11412;50.802;4.350;2023-06-22T03:01:28;4.45;;;3.60;;
22490;SDS011;11412;50.802;4.350;2023-06-22T03:03:55;5.20;;;3.30;;
22490;SDS011;11412;50.802;4.350;2023-06-22T03:06:24;3.30;;;3.10;;
22490;SDS011;11412;50.802;4.350;2023-06-22T03:08:54;5.43;;;3.38;;
22490;SDS011;11412;50.802;4.350;2023-06-22T03:11:30;3.17;;;2.88;;
22490;SDS011;11412;50.802;4.350;2023-06-22T03:13:56;5.13;;;3.13;;
22490;SDS011;11412;50.802;4.350;2023-06-22T03:16:21;3.60;;;2.72;;
22490;SDS011;11412;50.802;4.350;2023-06-22T03:18:47;6.65;;;3.90;;
22490;SDS011;11412;50.802;4.350;2023-06-22T03:21:13;3.90;;;3.38;;
22490;SDS011;11412;50.802;4.350;2023-06-22T03:23:40;3.65;;;3.05;;
22490;SDS011;11412;50.802;4.350;2023-06-22T03:26:06;3.58;;;3.13;;
22490;SDS011;11412;50.802;4.350;2023-06-22T03:28:33;3.53;;;2.97;;
22490;SDS011;11412;50.802;4.350;2023-06-22T03:30:59;3.92;;;3.22;;
22490;SDS011;11412;50.802;4.350;2023-06-22T03:33:24;3.53;;;3.20;;
22490;SDS011;11412;50.802;4.350;2023-06-22T03:35:50;4.82;;;3.75;;
22490;SDS011;11412;50.802;4.350;2023-06-22T03:38:16;3.55;;;3.25;;
22490;SDS011;11412;50.802;4.350;2023-06-22T03:40:42;9.40;;;3.33;;
22490;SDS011;11412;50.802;4.350;2023-06-22T03:43:08;4.57;;;3.28;;
22490;SDS011;11412;50.802;4.350;2023-06-22T03:45:34;5.05;;;3.28;;
22490;SDS011;11412;50.802;4.350;2023-06-22T03:48:00;3.90;;;3.47;;
22490;SDS011;11412;50.802;4.350;2023-06-22T03:50:26;3.75;;;3.00;;
22490;SDS011;11412;50.802;4.350;2023-06-22T03:52:52;3.95;;;3.00;;
22490;SDS011;11412;50.802;4.350;2023-06-22T03:55:19;3.60;;;3.22;;
22490;SDS011;11412;50.802;4.350;2023-06-22T03:57:45;3.70;;;2.85;;
22490;SDS011;11412;50.802;4.350;2023-06-22T04:00:11;3.25;;;2.95;;
22490;SDS011;11412;50.802;4.350;2023-06-22T04:02:37;3.80;;;3.50;;
22490;SDS011;11412;50.802;4.350;2023-06-22T04:05:03;4.15;;;3.83;;
22490;SDS011;11412;50.802;4.350;2023-06-22T04:07:29;6.18;;;4.45;;
22490;SDS011;11412;50.802;4.350;2023-06-22T04:09:55;6.45;;;4.60;;
22490;SDS011;11412;50.802;4.350;2023-06-22T04:12:20;4.95;;;4.15;;
22490;SDS011;11412;50.802;4.350;2023-06-22T04:14:46;5.30;;;4.00;;
22490;SDS011;11412;50.802;4.350;2023-06-22T04:17:11;5.40;;;3.90;;
22490;SDS011;11412;50.802;4.350;2023-06-22T04:19:39;6.20;;;4.25;;
22490;SDS011;11412;50.802;4.350;2023-06-22T04:22:05;3.88;;;3.58;;
22490;SDS011;11412;50.802;4.350;2023-06-22T04:24:32;4.20;;;3.85;;
22490;SDS011;11412;50.802;4.350;2023-06-22T04:26:58;5.85;;;4.85;;
22490;SDS011;11412;50.802;4.350;2023-06-22T04:29:27;5.32;;;4.13;;
22490;SDS011;11412;50.802;4.350;2023-06-22T04:31:57;4.35;;;4.05;;
22490;SDS011;11412;50.802;4.350;2023-06-22T04:34:24;4.55;;;3.80;;
22490;SDS011;11412;50.802;4.350;2023-06-22T04:36:53;4.40;;;4.00;;
22490;SDS011;11412;50.802;4.350;2023-06-22T04:39:19;5.78;;;4.38;;
22490;SDS011;11412;50.802;4.350;2023-06-22T04:41:45;5.00;;;4.00;;
22490;SDS011;11412;50.802;4.350;2023-06-22T04:44:19;6.70;;;4.38;;
22490;SDS011;11412;50.802;4.350;2023-06-22T04:46:51;3.90;;;3.55;;
22490;SDS011;11412;50.802;4.350;2023-06-22T04:49:25;4.60;;;4.18;;
22490;SDS011;11412;50.802;4.350;2023-06-22T04:52:00;6.85;;;4.82;;
22490;SDS011;11412;50.802;4.350;2023-06-22T04:54:26;5.22;;;4.20;;
22490;SDS011;11412;50.802;4.350;2023-06-22T04:56:52;4.43;;;3.88;;
22490;SDS011;11412;50.802;4.350;2023-06-22T04:59:22;4.43;;;4.03;;
22490;SDS011;11412;50.802;4.350;2023-06-22T05:01:53;5.13;;;4.25;;
22490;SDS011;11412;50.802;4.350;2023-06-22T05:04:19;5.80;;;5.25;;
22490;SDS011;11412;50.802;4.350;2023-06-22T05:06:45;8.77;;;5.55;;
22490;SDS011;11412;50.802;4.350;2023-06-22T05:09:10;5.70;;;5.20;;
22490;SDS011;11412;50.802;4.350;2023-06-22T05:11:37;8.80;;;7.05;;
22490;SDS011;11412;50.802;4.350;2023-06-22T05:14:03;8.85;;;6.95;;
22490;SDS011;11412;50.802;4.350;2023-06-22T05:16:28;10.80;;;7.22;;
22490;SDS011;11412;50.802;4.350;2023-06-22T05:18:54;10.23;;;8.27;;
22490;SDS011;11412;50.802;4.350;2023-06-22T05:21:24;9.05;;;8.15;;
22490;SDS011;11412;50.802;4.350;2023-06-22T05:23:51;9.32;;;8.43;;
22490;SDS011;11412;50.802;4.350;2023-06-22T05:26:21;10.07;;;8.98;;
22490;SDS011;11412;50.802;4.350;2023-06-22T05:28:47;10.98;;;9.65;;
22490;SDS011;11412;50.802;4.350;2023-06-22T05:31:16;11.10;;;10.00;;
22490;SDS011;11412;50.802;4.350;2023-06-22T05:33:42;11.50;;;10.27;;
22490;SDS011;11412;50.802;4.350;2023-06-22T05:36:09;13.70;;;10.60;;
22490;SDS011;11412;50.802;4.350;2023-06-22T05:38:35;13.77;;;11.23;;
22490;SDS011;11412;50.802;4.350;2023-06-22T05:41:02;12.85;;;11.38;;
22490;SDS011;11412;50.802;4.350;2023-06-22T05:43:28;14.73;;;11.32;;
22490;SDS011;11412;50.802;4.350;2023-06-22T05:45:54;13.77;;;11.82;;
22490;SDS011;11412;50.802;4.350;2023-06-22T05:48:19;13.38;;;11.98;;
22490;SDS011;11412;50.802;4.350;2023-06-22T05:50:45;13.27;;;11.32;;
22490;SDS011;11412;50.802;4.350;2023-06-22T05:53:11;14.88;;;13.27;;
22490;SDS011;11412;50.802;4.350;2023-06-22T05:55:36;19.08;;;13.45;;
22490;SDS011;11412;50.802;4.350;2023-06-22T05:58:02;16.75;;;14.05;;
22490;SDS011;11412;50.802;4.350;2023-06-22T06:00:31;15.15;;;13.25;;
22490;SDS011;11412;50.802;4.350;2023-06-22T06:02:57;15.93;;;14.15;;
22490;SDS011;11412;50.802;4.350;2023-06-22T06:05:28;15.00;;;13.43;;
22490;SDS011;11412;50.802;4.350;2023-06-22T06:07:54;19.45;;;15.38;;
22490;SDS011;11412;50.802;4.350;2023-06-22T06:10:20;14.93;;;13.32;;
22490;SDS011;11412;50.802;4.350;2023-06-22T06:12:45;15.93;;;13.27;;
22490;SDS011;11412;50.802;4.350;2023-06-22T06:15:11;22.95;;;14.35;;
22490;SDS011;11412;50.802;4.350;2023-06-22T06:17:44;16.45;;;13.15;;
22490;SDS011;11412;50.802;4.350;2023-06-22T06:20:13;15.63;;;13.88;;
22490;SDS011;11412;50.802;4.350;2023-06-22T06:22:40;14.75;;;13.30;;
22490;SDS011;11412;50.802;4.350;2023-06-22T06:25:07;15.98;;;13.98;;
22490;SDS011;11412;50.802;4.350;2023-06-22T06:27:33;16.27;;;14.60;;
22490;SDS011;11412;50.802;4.350;2023-06-22T06:29:59;19.35;;;15.45;;
22490;SDS011;11412;50.802;4.350;2023-06-22T06:32:25;18.15;;;16.17;;
22490;SDS011;11412;50.802;4.350;2023-06-22T06:34:50;17.92;;;16.05;;
22490;SDS011;11412;50.802;4.350;2023-06-22T06:37:16;18.45;;;15.48;;
22490;SDS011;11412;50.802;4.350;2023-06-22T06:39:43;19.90;;;16.45;;
22490;SDS011;11412;50.802;4.350;2023-06-22T06:42:09;20.80;;;16.65;;
22490;SDS011;11412;50.802;4.350;2023-06-22T06:44:36;21.25;;;16.63;;
22490;SDS011;11412;50.802;4.350;2023-06-22T06:47:03;22.13;;;16.08;;
22490;SDS011;11412;50.802;4.350;2023-06-22T06:49:29;22.00;;;16.77;;
22490;SDS011;11412;50.802;4.350;2023-06-22T06:51:55;24.38;;;16.48;;
22490;SDS011;11412;50.802;4.350;2023-06-22T06:54:21;17.40;;;15.63;;
22490;SDS011;11412;50.802;4.350;2023-06-22T06:56:48;21.35;;;17.02;;
22490;SDS011;11412;50.802;4.350;2023-06-22T06:59:16;22.40;;;15.60;;
22490;SDS011;11412;50.802;4.350;2023-06-22T07:01:42;18.33;;;16.45;;
22490;SDS011;11412;50.802;4.350;2023-06-22T07:04:09;21.55;;;16.58;;
22490;SDS011;11412;50.802;4.350;2023-06-22T07:06:35;17.35;;;15.15;;
22490;SDS011;11412;50.802;4.350;2023-06-22T07:09:01;17.98;;;16.17;;
22490;SDS011;11412;50.802;4.350;2023-06-22T07:11:28;18.95;;;15.90;;
22490;SDS011;11412;50.802;4.350;2023-06-22T07:13:54;18.05;;;15.73;;
22490;SDS011;11412;50.802;4.350;2023-06-22T07:16:19;19.15;;;16.45;;
22490;SDS011;11412;50.802;4.350;2023-06-22T07:18:45;18.45;;;15.65;;
22490;SDS011;11412;50.802;4.350;2023-06-22T07:21:11;18.80;;;15.63;;
22490;SDS011;11412;50.802;4.350;2023-06-22T07:23:36;21.00;;;15.55;;
22490;SDS011;11412;50.802;4.350;2023-06-22T07:26:02;18.83;;;15.20;;
22490;SDS011;11412;50.802;4.350;2023-06-22T07:28:28;15.77;;;13.93;;
22490;SDS011;11412;50.802;4.350;2023-06-22T07:31:02;22.30;;;16.45;;
22490;SDS011;11412;50.802;4.350;2023-06-22T07:33:28;18.77;;;15.18;;
22490;SDS011;11412;50.802;4.350;2023-06-22T07:35:53;19.13;;;16.02;;
22490;SDS011;11412;50.802;4.350;2023-06-22T07:38:19;20.13;;;14.43;;
22490;SDS011;11412;50.802;4.350;2023-06-22T07:40:45;16.80;;;14.98;;
22490;SDS011;11412;50.802;4.350;2023-06-22T07:43:10;14.77;;;13.18;;
22490;SDS011;11412;50.802;4.350;2023-06-22T07:45:37;15.38;;;13.52;;
22490;SDS011;11412;50.802;4.350;2023-06-22T07:48:05;15.02;;;13.38;;
22490;SDS011;11412;50.802;4.350;2023-06-22T07:50:31;16.35;;;13.20;;
22490;SDS011;11412;50.802;4.350;2023-06-22T07:52:56;14.68;;;13.07;;
22490;SDS011;11412;50.802;4.350;2023-06-22T07:55:22;14.70;;;13.20;;
22490;SDS011;11412;50.802;4.350;2023-06-22T07:57:48;16.25;;;13.30;;
22490;SDS011;11412;50.802;4.350;2023-06-22T08:00:16;16.10;;;12.88;;
22490;SDS011;11412;50.802;4.350;2023-06-22T08:02:43;18.67;;;13.10;;
22490;SDS011;11412;50.802;4.350;2023-06-22T08:05:10;13.25;;;11.95;;
22490;SDS011;11412;50.802;4.350;2023-06-22T08:07:37;15.45;;;12.07;;
22490;SDS011;11412;50.802;4.350;2023-06-22T08:10:04;15.63;;;12.93;;
22490;SDS011;11412;50.802;4.350;2023-06-22T08:12:30;13.85;;;12.35;;
22490;SDS011;11412;50.802;4.350;2023-06-22T08:14:56;16.08;;;12.18;;
22490;SDS011;11412;50.802;4.350;2023-06-22T08:17:23;13.18;;;11.77;;
22490;SDS011;11412;50.802;4.350;2023-06-22T08:19:49;15.80;;;12.20;;
22490;SDS011;11412;50.802;4.350;2023-06-22T08:22:15;14.77;;;12.10;;
22490;SDS011;11412;50.802;4.350;2023-06-22T08:24:42;13.55;;;12.15;;
22490;SDS011;11412;50.802;4.350;2023-06-22T08:27:07;14.80;;;12.30;;
22490;SDS011;11412;50.802;4.350;2023-06-22T08:29:34;14.50;;;12.00;;
22490;SDS011;11412;50.802;4.350;2023-06-22T08:32:00;16.50;;;11.95;;
22490;SDS011;11412;50.802;4.350;2023-06-22T08:34:26;14.70;;;11.40;;
22490;SDS011;11412;50.802;4.350;2023-06-22T08:36:53;16.20;;;12.13;;
22490;SDS011;11412;50.802;4.350;2023-06-22T08:39:19;15.68;;;12.80;;
22490;SDS011;11412;50.802;4.350;2023-06-22T08:41:45;15.02;;;12.48;;
22490;SDS011;11412;50.802;4.350;2023-06-22T08:44:12;17.38;;;13.45;;
22490;SDS011;11412;50.802;4.350;2023-06-22T08:46:38;14.40;;;12.73;;
22490;SDS011;11412;50.802;4.350;2023-06-22T08:49:06;15.73;;;14.07;;
22490;SDS011;11412;50.802;4.350;2023-06-22T08:51:32;14.10;;;11.95;;
22490;SDS011;11412;50.802;4.350;2023-06-22T08:53:57;18.40;;;13.55;;
22490;SDS011;11412;50.802;4.350;2023-06-22T08:56:23;14.43;;;12.18;;
22490;SDS011;11412;50.802;4.350;2023-06-22T08:58:49;15.68;;;12.27;;
22490;SDS011;11412;50.802;4.350;2023-06-22T09:01:14;17.38;;;13.25;;
22490;SDS011;11412;50.802;4.350;2023-06-22T09:03:40;13.90;;;12.15;;
22490;SDS011;11412;50.802;4.350;2023-06-22T09:06:06;17.98;;;13.25;;
22490;SDS011;11412;50.802;4.350;2023-06-22T09:08:34;17.95;;;13.43;;
22490;SDS011;11412;50.802;4.350;2023-06-22T09:11:00;15.65;;;12.70;;
22490;SDS011;11412;50.802;4.350;2023-06-22T09:13:26;16.17;;;12.57;;
22490;SDS011;11412;50.802;4.350;2023-06-22T09:15:53;16.75;;;12.23;;
22490;SDS011;11412;50.802;4.350;2023-06-22T09:18:18;15.45;;;11.65;;
22490;SDS011;11412;50.802;4.350;2023-06-22T09:20:44;13.27;;;11.40;;
22490;SDS011;11412;50.802;4.350;2023-06-22T09:23:10;16.25;;;11.38;;
22490;SDS011;11412;50.802;4.350;2023-06-22T09:25:36;16.00;;;11.07;;
22490;SDS011;11412;50.802;4.350;2023-06-22T09:28:02;13.50;;;10.98;;
22490;SDS011;11412;50.802;4.350;2023-06-22T09:30:27;16.15;;;12.13;;
22490;SDS011;11412;50.802;4.350;2023-06-22T09:32:53;12.15;;;10.88;;
22490;SDS011;11412;50.802;4.350;2023-06-22T09:35:19;12.43;;;11.15;;
22490;SDS011;11412;50.802;4.350;2023-06-22T09:37:45;13.68;;;12.30;;
22490;SDS011;11412;50.802;4.350;2023-06-22T09:40:11;14.13;;;12.82;;
22490;SDS011;11412;50.802;4.350;2023-06-22T09:42:38;18.65;;;13.30;;
22490;SDS011;11412;50.802;4.350;2023-06-22T09:45:04;18.17;;;13.60;;
22490;SDS011;11412;50.802;4.350;2023-06-22T09:47:31;20.08;;;13.73;;
22490;SDS011;11412;50.802;4.350;2023-06-22T09:49:56;17.33;;;13.00;;
22490;SDS011;11412;50.802;4.350;2023-06-22T09:52:24;25.45;;;14.40;;
22490;SDS011;11412;50.802;4.350;2023-06-22T09:54:50;15.15;;;11.25;;
22490;SDS011;11412;50.802;4.350;2023-06-22T09:57:16;16.20;;;12.48;;
22490;SDS011;11412;50.802;4.350;2023-06-22T09:59:42;15.75;;;11.65;;
22490;SDS011;11412;50.802;4.350;2023-06-22T10:02:07;14.00;;;11.25;;
22490;SDS011;11412;50.802;4.350;2023-06-22T10:04:34;17.40;;;12.05;;
22490;SDS011;11412;50.802;4.350;2023-06-22T10:07:00;22.25;;;12.27;;
22490;SDS011;11412;50.802;4.350;2023-06-22T10:09:26;16.30;;;13.30;;
22490;SDS011;11412;50.802;4.350;2023-06-22T10:11:52;15.23;;;13.07;;
22490;SDS011;11412;50.802;4.350;2023-06-22T10:14:17;15.93;;;13.68;;
22490;SDS011;11412;50.802;4.350;2023-06-22T10:16:43;16.42;;;13.80;;
22490;SDS011;11412;50.802;4.350;2023-06-22T10:19:09;16.30;;;14.45;;
22490;SDS011;11412;50.802;4.350;2023-06-22T10:21:34;15.77;;;14.10;;
22490;SDS011;11412;50.802;4.350;2023-06-22T10:24:00;15.45;;;13.07;;
22490;SDS011;11412;50.802;4.350;2023-06-22T10:26:34;15.82;;;14.00;;
22490;SDS011;11412;50.802;4.350;2023-06-22T10:29:01;16.52;;;14.57;;
22490;SDS011;11412;50.802;4.350;2023-06-22T10:31:28;16.40;;;14.10;;
22490;SDS011;11412;50.802;4.350;2023-06-22T10:33:54;18.80;;;15.88;;
22490;SDS011;11412;50.802;4.350;2023-06-22T10:36:20;20.90;;;14.05;;
22490;SDS011;11412;50.802;4.350;2023-06-22T10:38:47;19.55;;;14.38;;
22490;SDS011;11412;50.802;4.350;2023-06-22T10:41:13;16.23;;;14.63;;
22490;SDS011;11412;50.802;4.350;2023-06-22T10:43:39;25.08;;;14.27;;
22490;SDS011;11412;50.802;4.350;2023-06-22T10:46:04;15.85;;;14.00;;
22490;SDS011;11412;50.802;4.350;2023-06-22T10:48:31;15.93;;;14.35;;
22490;SDS011;11412;50.802;4.350;2023-06-22T10:50:57;17.35;;;15.43;;
22490;SDS011;11412;50.802;4.350;2023-06-22T10:53:22;17.70;;;14.45;;
22490;SDS011;11412;50.802;4.350;2023-06-22T10:55:48;19.42;;;16.20;;
22490;SDS011;11412;50.802;4.350;2023-06-22T10:58:14;18.35;;;16.17;;
22490;SDS011;11412;50.802;4.350;2023-06-22T11:00:39;20.25;;;16.38;;
22490;SDS011;11412;50.802;4.350;2023-06-22T11:03:05;18.20;;;16.15;;
22490;SDS011;11412;50.802;4.350;2023-06-22T11:05:31;18.90;;;16.80;;
22490;SDS011;11412;50.802;4.350;2023-06-22T11:07:57;19.90;;;16.55;;
22490;SDS011;11412;50.802;4.350;2023-06-22T11:10:22;22.08;;;18.40;;
22490;SDS011;11412;50.802;4.350;2023-06-22T11:12:48;23.05;;;18.90;;
22490;SDS011;11412;50.802;4.350;2023-06-22T11:15:14;25.50;;;18.92;;
22490;SDS011;11412;50.802;4.350;2023-06-22T11:17:40;21.85;;;18.77;;
22490;SDS011;11412;50.802;4.350;2023-06-22T11:20:06;22.35;;;18.55;;
22490;SDS011;11412;50.802;4.350;2023-06-22T11:22:37;21.63;;;19.23;;
22490;SDS011;11412;50.802;4.350;2023-06-22T11:25:04;21.75;;;19.45;;
22490;SDS011;11412;50.802;4.350;2023-06-22T11:27:30;22.20;;;19.98;;
22490;SDS011;11412;50.802;4.350;2023-06-22T11:29:56;26.70;;;21.58;;
22490;SDS011;11412;50.802;4.350;2023-06-22T11:32:22;28.63;;;21.40;;
22490;SDS011;11412;50.802;4.350;2023-06-22T11:34:48;24.42;;;20.33;;
22490;SDS011;11412;50.802;4.350;2023-06-22T11:37:14;27.05;;;21.77;;
22490;SDS011;11412;50.802;4.350;2023-06-22T11:39:40;26.77;;;21.52;;
22490;SDS011;11412;50.802;4.350;2023-06-22T11:42:06;23.77;;;21.00;;
22490;SDS011;11412;50.802;4.350;2023-06-22T11:44:33;23.20;;;20.73;;
22490;SDS011;11412;50.802;4.350;2023-06-22T11:46:58;22.67;;;20.08;;
22490;SDS011;11412;50.802;4.350;2023-06-22T11:49:26;23.85;;;21.23;;
22490;SDS011;11412;50.802;4.350;2023-06-22T11:51:52;23.45;;;20.58;;
22490;SDS011;11412;50.802;4.350;2023-06-22T11:54:18;22.15;;;20.00;;
22490;SDS011;11412;50.802;4.350;2023-06-22T11:56:43;21.92;;;19.65;;
22490;SDS011;11412;50.802;4.350;2023-06-22T11:59:09;24.92;;;19.90;;
22490;SDS011;11412;50.802;4.350;2023-06-22T12:01:35;21.73;;;19.48;;
22490;SDS011;11412;50.802;4.350;2023-06-22T12:04:01;24.60;;;20.30;;
22490;SDS011;11412;50.802;4.350;2023-06-22T12:06:30;23.00;;;19.90;;
22490;SDS011;11412;50.802;4.350;2023-06-22T12:08:56;22.70;;;20.27;;
22490;SDS011;11412;50.802;4.350;2023-06-22T12:11:22;23.52;;;19.83;;
22490;SDS011;11412;50.802;4.350;2023-06-22T12:13:47;25.17;;;19.67;;
22490;SDS011;11412;50.802;4.350;2023-06-22T12:16:13;22.75;;;19.60;;
22490;SDS011;11412;50.802;4.350;2023-06-22T12:18:39;22.08;;;19.55;;
22490;SDS011;11412;50.802;4.350;2023-06-22T12:21:04;25.30;;;19.88;;
22490;SDS011;11412;50.802;4.350;2023-06-22T12:23:30;23.55;;;21.15;;
22490;SDS011;11412;50.802;4.350;2023-06-22T12:25:55;24.05;;;20.52;;
22490;SDS011;11412;50.802;4.350;2023-06-22T12:28:21;24.75;;;20.77;;
22490;SDS011;11412;50.802;4.350;2023-06-22T12:30:48;22.67;;;20.30;;
22490;SDS011;11412;50.802;4.350;2023-06-22T12:33:14;23.95;;;21.35;;
22490;SDS011;11412;50.802;4.350;2023-06-22T12:35:39;27.23;;;20.70;;
22490;SDS011;11412;50.802;4.350;2023-06-22T12:38:05;23.38;;;20.73;;
22490;SDS011;11412;50.802;4.350;2023-06-22T12:40:33;23.73;;;20.52;;
22490;SDS011;11412;50.802;4.350;2023-06-22T12:42:58;23.90;;;21.30;;
22490;SDS011;11412;50.802;4.350;2023-06-22T12:45:24;29.65;;;20.70;;
22490;SDS011;11412;50.802;4.350;2023-06-22T12:47:54;25.10;;;22.50;;
22490;SDS011;11412;50.802;4.350;2023-06-22T12:50:19;28.80;;;23.52;;
22490;SDS011;11412;50.802;4.350;2023-06-22T12:52:45;24.95;;;22.08;;
22490;SDS011;11412;50.802;4.350;2023-06-22T12:55:11;23.85;;;21.35;;
22490;SDS011;11412;50.802;4.350;2023-06-22T12:57:36;30.42;;;23.20;;
22490;SDS011;11412;50.802;4.350;2023-06-22T13:00:02;24.92;;;21.98;;
22490;SDS011;11412;50.802;4.350;2023-06-22T13:02:30;24.90;;;22.35;;
22490;SDS011;11412;50.802;4.350;2023-06-22T13:04:55;28.95;;;24.27;;
22490;SDS011;11412;50.802;4.350;2023-06-22T13:07:21;25.70;;;23.08;;
22490;SDS011;11412;50.802;4.350;2023-06-22T13:09:47;28.33;;;23.23;;
22490;SDS011;11412;50.802;4.350;2023-06-22T13:12:16;26.23;;;23.42;;
22490;SDS011;11412;50.802;4.350;2023-06-22T13:14:42;26.42;;;23.58;;
22490;SDS011;11412;50.802;4.350;2023-06-22T13:17:08;25.88;;;22.95;;
22490;SDS011;11412;50.802;4.350;2023-06-22T13:19:34;26.73;;;23.90;;
22490;SDS011;11412;50.802;4.350;2023-06-22T13:22:00;27.65;;;24.52;;
22490;SDS011;11412;50.802;4.350;2023-06-22T13:24:25;28.23;;;25.13;;
22490;SDS011;11412;50.802;4.350;2023-06-22T13:26:51;30.98;;;26.17;;
22490;SDS011;11412;50.802;4.350;2023-06-22T13:29:17;29.45;;;26.33;;
22490;SDS011;11412;50.802;4.350;2023-06-22T13:31:42;29.88;;;26.10;;
22490;SDS011;11412;50.802;4.350;2023-06-22T13:34:08;34.95;;;26.75;;
22490;SDS011;11412;50.802;4.350;2023-06-22T13:36:33;30.52;;;27.23;;
22490;SDS011;11412;50.802;4.350;2023-06-22T13:38:59;30.92;;;26.92;;
22490;SDS011;11412;50.802;4.350;2023-06-22T13:41:25;29.98;;;26.80;;
22490;SDS011;11412;50.802;4.350;2023-06-22T13:43:50;29.83;;;26.73;;
22490;SDS011;11412;50.802;4.350;2023-06-22T13:46:16;33.25;;;27.23;;
22490;SDS011;11412;50.802;4.350;2023-06-22T13:48:42;30.15;;;26.75;;
22490;SDS011;11412;50.802;4.350;2023-06-22T13:51:08;29.95;;;26.75;;
22490;SDS011;11412;50.802;4.350;2023-06-22T13:53:33;28.40;;;25.40;;
22490;SDS011;11412;50.802;4.350;2023-06-22T13:55:59;30.92;;;25.15;;
22490;SDS011;11412;50.802;4.350;2023-06-22T13:58:24;28.60;;;24.58;;
22490;SDS011;11412;50.802;4.350;2023-06-22T14:00:50;27.65;;;24.83;;
22490;SDS011;11412;50.802;4.350;2023-06-22T14:03:16;27.50;;;23.92;;
22490;SDS011;11412;50.802;4.350;2023-06-22T14:05:42;29.63;;;24.52;;
22490;SDS011;11412;50.802;4.350;2023-06-22T14:08:08;25.95;;;23.23;;
22490;SDS011;11412;50.802;4.350;2023-06-22T14:10:34;24.92;;;21.85;;
22490;SDS011;11412;50.802;4.350;2023-06-22T14:13:00;27.95;;;22.17;;
22490;SDS011;11412;50.802;4.350;2023-06-22T14:15:25;25.23;;;22.73;;
22490;SDS011;11412;50.802;4.350;2023-06-22T14:17:51;24.50;;;21.95;;
22490;SDS011;11412;50.802;4.350;2023-06-22T14:20:17;24.48;;;21.85;;
22490;SDS011;11412;50.802;4.350;2023-06-22T14:22:43;24.95;;;22.35;;
22490;SDS011;11412;50.802;4.350;2023-06-22T14:25:09;24.35;;;21.70;;
22490;SDS011;11412;50.802;4.350;2023-06-22T14:27:35;27.00;;;23.20;;
22490;SDS011;11412;50.802;4.350;2023-06-22T14:30:01;24.40;;;21.77;;
22490;SDS011;11412;50.802;4.350;2023-06-22T14:32:28;26.17;;;23.33;;